createdAt,value
2018-08-22T00:00:42.170Z,70.80
2018-08-22T00:03:11.614Z,70.60
2018-08-22T00:05:40.047Z,71.00
2018-08-22T00:08:08.579Z,71.50
2018-08-22T00:10:38.044Z,71.20
2018-08-22T00:13:06.544Z,71.10
2018-08-22T00:15:34.911Z,71.80
2018-08-22T00:18:03.465Z,73.00
2018-08-22T00:20:31.926Z,73.00
2018-08-22T00:23:00.361Z,72.60
2018-08-22T00:25:29.275Z,72.30
2018-08-22T00:27:57.870Z,71.90
2018-08-22T00:30:26.276Z,71.70
2018-08-22T00:32:54.709Z,72.30
2018-08-22T00:35:23.145Z,71.90
2018-08-22T00:37:51.827Z,71.90
2018-08-22T00:40:20.271Z,72.90
2018-08-22T00:42:48.778Z,72.70
2018-08-22T00:45:17.546Z,72.90
2018-08-22T00:47:46.027Z,73.30
2018-08-22T00:50:14.877Z,73.20
2018-08-22T00:52:44.410Z,73.00
2018-08-22T00:55:12.872Z,74.00
2018-08-22T00:57:41.412Z,73.60
2018-08-22T01:00:10.052Z,74.00
2018-08-22T01:02:38.639Z,73.50
2018-08-22T01:05:07.713Z,73.60
2018-08-22T01:07:36.190Z,73.70
2018-08-22T01:10:05.438Z,73.80
2018-08-22T01:12:34.351Z,73.70
2018-08-22T01:15:09.709Z,73.00
2018-08-22T01:17:38.359Z,73.70
2018-08-22T01:20:07.525Z,74.00
2018-08-22T01:22:36.230Z,74.80
2018-08-22T01:25:04.812Z,73.10
2018-08-22T01:27:33.514Z,74.40
2018-08-22T01:30:02.136Z,73.40
2018-08-22T01:32:31.589Z,73.10
2018-08-22T01:35:00.645Z,73.00
2018-08-22T01:37:29.195Z,72.60
2018-08-22T01:39:57.655Z,73.40
2018-08-22T01:42:26.101Z,72.80
2018-08-22T01:44:54.863Z,73.20
2018-08-22T01:47:23.338Z,73.30
2018-08-22T01:49:51.794Z,73.20
2018-08-22T01:52:20.180Z,73.30
2018-08-22T01:54:49.060Z,72.80
2018-08-22T01:57:17.726Z,73.00
2018-08-22T01:59:46.493Z,72.70
2018-08-22T02:02:15.080Z,73.60
2018-08-22T02:04:43.774Z,74.10
2018-08-22T02:07:12.297Z,73.90
2018-08-22T02:09:40.950Z,74.00
2018-08-22T02:12:09.414Z,74.00
2018-08-22T02:14:38.082Z,74.40
2018-08-22T02:17:06.601Z,73.60
2018-08-22T02:19:35.418Z,74.60
2018-08-22T02:22:03.777Z,74.40
2018-08-22T02:24:32.273Z,74.10
2018-08-22T02:27:00.490Z,74.00
2018-08-22T02:29:29.183Z,74.20
2018-08-22T02:32:04.046Z,74.70
2018-08-22T02:34:32.480Z,74.30
2018-08-22T02:37:00.879Z,74.10
2018-08-22T02:39:29.493Z,74.90
2018-08-22T02:41:58.016Z,74.20
2018-08-22T02:44:26.588Z,74.20
2018-08-22T02:46:55.278Z,74.60
2018-08-22T02:49:23.652Z,73.90
2018-08-22T02:51:52.135Z,73.80
2018-08-22T02:54:20.979Z,73.60
2018-08-22T02:56:49.437Z,74.20
2018-08-22T02:59:18.039Z,74.10
2018-08-22T03:01:46.447Z,73.80
2018-08-22T03:04:14.862Z,74.90
2018-08-22T03:06:43.616Z,74.80
2018-08-22T03:09:12.040Z,74.80
2018-08-22T03:11:40.851Z,75.50
2018-08-22T03:14:09.332Z,75.00
2018-08-22T03:16:37.812Z,74.30
2018-08-22T03:19:06.159Z,74.50
2018-08-22T03:21:34.574Z,74.10
2018-08-22T03:24:03.296Z,74.70
2018-08-22T03:26:32.057Z,74.90
2018-08-22T03:29:00.617Z,75.50
2018-08-22T03:31:29.076Z,75.30
2018-08-22T03:33:57.917Z,75.10
2018-08-22T03:36:26.314Z,74.60
2018-08-22T03:38:55.191Z,74.70
2018-08-22T03:41:23.734Z,75.30
2018-08-22T03:43:52.269Z,75.40
2018-08-22T03:46:20.704Z,75.80
2018-08-22T03:48:49.412Z,76.20
2018-08-22T03:51:17.988Z,75.60
2018-08-22T03:53:46.464Z,76.00
2018-08-22T03:56:14.964Z,76.10
2018-08-22T03:58:43.435Z,76.00
2018-08-22T04:01:12.120Z,76.00
2018-08-22T04:03:40.630Z,75.80
2018-08-22T04:06:09.118Z,75.00
2018-08-22T04:08:37.777Z,74.50
2018-08-22T04:11:06.295Z,74.40
2018-08-22T04:13:34.886Z,74.60
2018-08-22T04:16:03.681Z,74.40
2018-08-22T04:18:32.389Z,74.60
2018-08-22T04:21:00.929Z,74.00
2018-08-22T04:23:29.467Z,75.30
2018-08-22T04:25:57.900Z,74.90
2018-08-22T04:28:26.904Z,75.10
2018-08-22T04:30:55.043Z,74.80
2018-08-22T04:33:23.837Z,74.10
2018-08-22T04:35:52.654Z,73.90
2018-08-22T04:38:21.171Z,74.10
2018-08-22T04:40:49.991Z,74.50
2018-08-22T04:43:18.743Z,74.30
2018-08-22T04:45:47.337Z,74.60
2018-08-22T04:48:16.174Z,73.90
2018-08-22T04:50:44.568Z,75.00
2018-08-22T04:53:13.491Z,74.10
2018-08-22T04:55:41.979Z,73.60
2018-08-22T04:58:11.235Z,74.10
2018-08-22T05:00:39.715Z,74.20
2018-08-22T05:03:08.225Z,74.00
2018-08-22T05:05:36.442Z,73.10
2018-08-22T05:08:05.663Z,73.50
2018-08-22T05:10:34.291Z,74.50
2018-08-22T05:13:03.014Z,74.70
2018-08-22T05:15:32.196Z,74.60
2018-08-22T05:18:00.878Z,74.00
2018-08-22T05:20:30.243Z,74.70
2018-08-22T05:22:58.931Z,75.00
2018-08-22T05:25:27.576Z,74.90
2018-08-22T05:27:57.263Z,74.70
2018-08-22T05:30:25.853Z,75.20
2018-08-22T05:32:54.405Z,74.60
2018-08-22T05:35:23.481Z,74.90
2018-08-22T05:37:52.202Z,74.10
2018-08-22T05:40:22.258Z,74.50
2018-08-22T05:42:50.958Z,75.60
2018-08-22T05:45:19.550Z,75.20
2018-08-22T05:47:48.283Z,74.40
2018-08-22T05:50:17.309Z,74.60
2018-08-22T05:52:50.701Z,74.10
2018-08-22T05:55:22.356Z,74.60
2018-08-22T05:57:50.884Z,75.70
2018-08-22T06:00:19.672Z,75.10
2018-08-22T06:02:48.237Z,75.40
2018-08-22T06:05:17.303Z,74.90
2018-08-22T06:07:45.800Z,75.10
2018-08-22T06:10:15.092Z,74.80
2018-08-22T06:12:44.679Z,75.90
2018-08-22T06:15:14.075Z,75.10
2018-08-22T06:17:42.698Z,75.20
2018-08-22T06:20:11.568Z,75.00
2018-08-22T06:22:41.287Z,75.00
2018-08-22T06:25:11.221Z,74.90
2018-08-22T06:27:40.417Z,74.90
2018-08-22T06:30:11.169Z,75.30
2018-08-22T06:32:44.271Z,74.70
2018-08-22T06:35:13.898Z,74.20
2018-08-22T06:37:42.537Z,73.50
2018-08-22T06:40:11.771Z,74.30
2018-08-22T06:42:40.410Z,73.20
2018-08-22T06:45:14.119Z,73.70
2018-08-22T06:47:43.691Z,73.80
2018-08-22T06:50:13.589Z,73.80
2018-08-22T06:52:42.719Z,73.40
2018-08-22T06:55:11.516Z,75.40
2018-08-22T06:57:41.155Z,74.40
2018-08-22T07:00:11.954Z,73.70
2018-08-22T07:02:44.633Z,75.10
2018-08-22T07:05:14.064Z,73.80
2018-08-22T07:07:42.966Z,74.50
2018-08-22T07:10:11.845Z,74.40
2018-08-22T07:12:40.634Z,75.10
2018-08-22T07:15:09.212Z,74.80
2018-08-22T07:17:41.183Z,75.10
2018-08-22T07:20:12.843Z,74.60
2018-08-22T07:22:41.536Z,73.90
2018-08-22T07:25:10.138Z,74.10
2018-08-22T07:27:38.838Z,73.10
2018-08-22T07:30:08.855Z,73.10
2018-08-22T07:32:37.539Z,72.80
2018-08-22T07:35:06.412Z,73.20
2018-08-22T07:37:35.795Z,73.80
2018-08-22T07:40:05.099Z,71.80
2018-08-22T07:42:34.531Z,71.40
2018-08-22T07:45:04.391Z,71.70
2018-08-22T07:47:33.064Z,71.30
2018-08-22T07:50:02.183Z,71.10
2018-08-22T07:52:30.869Z,71.20
2018-08-22T07:54:59.660Z,70.30
2018-08-22T07:57:29.093Z,70.60
2018-08-22T07:59:57.656Z,70.60
2018-08-22T08:02:26.435Z,70.20
2018-08-22T08:04:55.019Z,70.30
2018-08-22T08:07:24.431Z,70.60
2018-08-22T08:09:53.525Z,69.60
2018-08-22T08:12:26.789Z,67.70
2018-08-22T08:15:02.005Z,66.70
2018-08-22T08:17:31.246Z,66.50
2018-08-22T08:20:00.902Z,65.50
2018-08-22T08:22:29.627Z,65.50
2018-08-22T08:24:58.351Z,65.60
2018-08-22T08:27:27.667Z,63.40
2018-08-22T08:29:56.429Z,61.20
2018-08-22T08:32:25.532Z,59.00
2018-08-22T08:34:55.068Z,56.10
2018-08-22T08:37:23.824Z,56.20
2018-08-22T08:39:52.912Z,54.50
2018-08-22T08:42:21.891Z,53.10
2018-08-22T08:44:51.124Z,52.00
2018-08-22T08:47:20.772Z,51.70
2018-08-22T08:49:49.354Z,50.70
2018-08-22T08:52:18.113Z,50.40
2018-08-22T08:54:48.108Z,51.00
2018-08-22T08:57:17.868Z,50.40
2018-08-22T08:59:47.187Z,48.30
2018-08-22T09:02:18.347Z,48.80
2018-08-22T09:04:47.162Z,47.70
2018-08-22T09:07:16.775Z,47.30
2018-08-22T09:09:46.538Z,50.20
2018-08-22T09:12:15.285Z,48.60
2018-08-22T09:14:44.587Z,49.10
2018-08-22T09:17:13.287Z,49.20
2018-08-22T09:19:42.303Z,48.70
2018-08-22T09:22:11.364Z,50.90
2018-08-22T09:24:42.818Z,50.00
2018-08-22T09:27:11.157Z,47.70
2018-08-22T09:29:39.832Z,47.80
2018-08-22T09:32:08.435Z,49.00
2018-08-22T09:34:37.019Z,48.40
2018-08-22T09:37:05.609Z,48.40
2018-08-22T09:39:34.977Z,48.60
2018-08-22T09:42:04.843Z,47.60
2018-08-22T09:44:33.520Z,48.40
2018-08-22T09:47:02.622Z,48.20
2018-08-22T09:49:32.056Z,47.50
2018-08-22T09:52:01.450Z,45.10
2018-08-22T09:54:30.083Z,44.90
2018-08-22T09:56:58.903Z,46.90
2018-08-22T09:59:27.757Z,46.90
2018-08-22T10:01:57.551Z,44.70
2018-08-22T10:04:26.841Z,43.80
2018-08-22T10:06:55.817Z,42.10
2018-08-22T10:09:24.755Z,42.20
2018-08-22T10:11:55.958Z,39.70
2018-08-22T10:14:25.825Z,38.30
2018-08-22T10:16:54.725Z,38.80
2018-08-22T10:19:24.759Z,38.20
2018-08-22T10:21:54.019Z,38.80
2018-08-22T10:24:23.535Z,38.80
2018-08-22T10:26:52.720Z,38.10
2018-08-22T10:29:21.387Z,38.40
2018-08-22T10:31:50.266Z,38.90
2018-08-22T10:34:19.147Z,38.40
2018-08-22T10:36:48.482Z,39.10
2018-08-22T10:39:17.186Z,38.80
2018-08-22T10:41:46.495Z,40.40
2018-08-22T10:44:15.747Z,40.20
2018-08-22T10:46:44.383Z,41.70
2018-08-22T10:49:13.480Z,41.40
2018-08-22T10:51:43.445Z,41.20
2018-08-22T10:54:13.575Z,41.80
2018-08-22T10:56:43.027Z,42.00
2018-08-22T10:59:11.709Z,41.50
2018-08-22T11:01:40.359Z,42.50
2018-08-22T11:04:09.736Z,40.10
2018-08-22T11:06:41.560Z,39.60
2018-08-22T11:09:11.406Z,40.50
2018-08-22T11:11:41.462Z,41.40
2018-08-22T11:14:10.466Z,40.70
2018-08-22T11:16:39.214Z,40.30
2018-08-22T11:19:07.944Z,40.70
2018-08-22T11:21:54.910Z,39.80
2018-08-22T11:24:41.130Z,39.40
2018-08-22T11:27:27.433Z,41.00
2018-08-22T11:30:13.091Z,39.70
2018-08-22T11:32:58.999Z,42.60
2018-08-22T11:35:26.005Z,41.00
2018-08-22T11:37:55.429Z,41.50
2018-08-22T11:40:24.685Z,41.00
2018-08-22T11:42:53.406Z,41.90
2018-08-22T11:45:22.211Z,42.70
2018-08-22T11:47:51.176Z,42.60
2018-08-22T11:50:21.076Z,41.70
2018-08-22T11:52:51.176Z,43.20
2018-08-22T11:55:19.784Z,41.00
2018-08-22T11:57:49.651Z,43.50
2018-08-22T12:00:19.029Z,41.30
2018-08-22T12:02:47.697Z,41.00
2018-08-22T12:05:17.231Z,41.10
2018-08-22T12:07:46.655Z,41.30
2018-08-22T12:10:16.059Z,41.10
2018-08-22T12:12:45.573Z,41.00
2018-08-22T12:15:14.256Z,42.10
2018-08-22T12:17:42.883Z,40.60
2018-08-22T12:20:11.900Z,40.60
2018-08-22T12:22:41.421Z,42.40
2018-08-22T12:25:10.726Z,42.20
2018-08-22T12:27:40.685Z,42.00
2018-08-22T12:30:12.438Z,41.10
2018-08-22T12:32:41.501Z,42.00
2018-08-22T12:35:11.230Z,41.00
2018-08-22T12:37:41.982Z,40.80
2018-08-22T12:40:11.553Z,42.60
2018-08-22T12:42:41.368Z,40.60
2018-08-22T12:45:11.092Z,41.20
2018-08-22T12:47:41.117Z,39.30
2018-08-22T12:50:09.794Z,39.20
2018-08-22T12:52:39.141Z,40.00
2018-08-22T12:55:13.293Z,39.00
2018-08-22T12:57:43.476Z,39.10
2018-08-22T13:00:15.082Z,39.70
2018-08-22T13:02:48.965Z,38.80
2018-08-22T13:05:20.166Z,39.10
2018-08-22T13:07:50.056Z,38.10
2018-08-22T13:10:18.960Z,37.50
2018-08-22T13:12:47.822Z,37.50
2018-08-22T13:15:19.071Z,38.40
2018-08-22T13:17:47.847Z,38.10
2018-08-22T13:20:16.402Z,36.90
2018-08-22T13:22:46.992Z,37.30
2018-08-22T13:25:16.650Z,38.70
2018-08-22T13:27:46.390Z,38.30
2018-08-22T13:30:15.061Z,39.40
2018-08-22T13:32:48.791Z,37.60
2018-08-22T13:35:18.239Z,38.30
2018-08-22T13:37:47.575Z,38.60
2018-08-22T13:40:17.134Z,39.00
2018-08-22T13:42:45.486Z,38.90
2018-08-22T13:45:14.806Z,38.70
2018-08-22T13:47:43.503Z,38.10
2018-08-22T13:50:13.292Z,38.40
2018-08-22T13:52:42.919Z,36.80
2018-08-22T13:55:12.453Z,39.40
2018-08-22T13:57:42.372Z,37.90
2018-08-22T14:00:11.218Z,37.20
2018-08-22T14:02:40.621Z,39.70
2018-08-22T14:05:10.231Z,36.30
2018-08-22T14:07:38.967Z,37.50
2018-08-22T14:10:09.969Z,37.50
2018-08-22T14:12:39.585Z,38.10
2018-08-22T14:15:09.155Z,38.20
2018-08-22T14:17:40.491Z,39.20
2018-08-22T14:20:11.203Z,40.00
2018-08-22T14:22:39.876Z,38.30
2018-08-22T14:25:12.444Z,37.40
2018-08-22T14:27:41.322Z,38.80
2018-08-22T14:30:10.266Z,38.90
2018-08-22T14:32:38.994Z,37.80
2018-08-22T14:35:08.887Z,38.00
2018-08-22T14:37:40.912Z,38.50
2018-08-22T14:40:10.721Z,38.40
2018-08-22T14:42:39.821Z,40.10
2018-08-22T14:45:10.818Z,40.60
2018-08-22T14:47:41.048Z,39.40
2018-08-22T14:50:10.784Z,38.60
2018-08-22T14:52:40.581Z,37.30
2018-08-22T14:55:09.750Z,39.60
2018-08-22T14:57:40.482Z,39.20
2018-08-22T15:00:10.781Z,40.00
2018-08-22T15:02:40.088Z,38.60
2018-08-22T15:05:09.805Z,38.70
2018-08-22T15:07:38.975Z,39.30
2018-08-22T15:10:09.032Z,39.10
2018-08-22T15:12:37.795Z,38.80
2018-08-22T15:15:10.894Z,38.70
2018-08-22T15:17:39.942Z,39.70
2018-08-22T15:20:12.019Z,39.20
2018-08-22T15:22:41.643Z,39.40
2018-08-22T15:25:10.942Z,38.80
2018-08-22T15:27:39.561Z,39.40
2018-08-22T15:30:09.750Z,40.00
2018-08-22T15:32:39.009Z,40.30
2018-08-22T15:35:07.701Z,40.50
2018-08-22T15:37:37.375Z,39.60
2018-08-22T15:40:06.731Z,40.10
2018-08-22T15:42:36.749Z,40.50
2018-08-22T15:45:06.259Z,40.50
2018-08-22T15:47:35.094Z,40.30
2018-08-22T15:50:04.276Z,40.50
2018-08-22T15:52:33.870Z,40.20
2018-08-22T15:55:15.774Z,39.90
2018-08-22T15:57:57.880Z,39.80
2018-08-22T16:00:34.185Z,39.40
2018-08-22T16:03:04.615Z,39.10
2018-08-22T16:05:34.509Z,39.90
2018-08-22T16:08:03.748Z,40.30
2018-08-22T16:10:32.451Z,39.80
2018-08-22T16:13:01.727Z,38.60
2018-08-22T16:15:41.258Z,39.80
2018-08-22T16:18:09.961Z,39.20
2018-08-22T16:20:49.674Z,39.40
2018-08-22T16:23:19.413Z,39.90
2018-08-22T16:25:50.873Z,39.10
2018-08-22T16:28:20.041Z,40.40
2018-08-22T16:30:57.041Z,41.00
2018-08-22T16:33:21.541Z,40.40
2018-08-22T16:35:50.437Z,40.70
2018-08-22T16:38:19.428Z,40.90
2018-08-22T16:40:52.873Z,41.20
2018-08-22T16:43:41.129Z,42.20
2018-08-22T16:46:13.663Z,41.60
2018-08-22T16:48:48.416Z,41.50
2018-08-22T16:51:18.563Z,41.80
2018-08-22T16:54:02.498Z,43.30
2018-08-22T16:56:33.121Z,43.30
2018-08-22T16:59:11.098Z,43.80
2018-08-22T17:01:45.763Z,44.00
2018-08-22T17:04:14.558Z,44.60
2018-08-22T17:06:44.006Z,44.20
2018-08-22T17:09:13.028Z,44.50
2018-08-22T17:11:41.844Z,44.60
2018-08-22T17:14:10.748Z,45.00
2018-08-22T17:16:40.025Z,45.00
2018-08-22T17:19:08.999Z,44.90
2018-08-22T17:21:37.941Z,44.80
2018-08-22T17:24:07.096Z,44.80
2018-08-22T17:26:36.576Z,44.70
2018-08-22T17:29:07.481Z,44.70
2018-08-22T17:31:36.285Z,44.70
2018-08-22T17:34:05.744Z,46.20
2018-08-22T17:36:35.095Z,46.10
2018-08-22T17:39:04.225Z,46.90
2018-08-22T17:41:34.508Z,47.90
2018-08-22T17:44:10.676Z,46.90
2018-08-22T17:46:47.140Z,47.60
2018-08-22T17:49:15.751Z,47.80
2018-08-22T17:52:13.229Z,47.70
2018-08-22T17:54:42.430Z,48.80
2018-08-22T17:57:23.107Z,47.40
2018-08-22T17:59:51.843Z,47.90
2018-08-22T18:02:21.907Z,48.30
2018-08-22T18:05:03.960Z,48.90
2018-08-22T18:07:33.137Z,49.20
2018-08-22T18:10:04.310Z,49.40
2018-08-22T18:12:33.359Z,50.30
2018-08-22T18:15:04.172Z,50.30
2018-08-22T18:17:34.000Z,50.40
2018-08-22T18:20:04.036Z,51.10
2018-08-22T18:22:34.248Z,52.20
2018-08-22T18:25:04.501Z,52.50
2018-08-22T18:27:33.207Z,53.10
2018-08-22T18:30:04.731Z,52.30
2018-08-22T18:32:33.964Z,52.20
2018-08-22T18:35:06.514Z,52.30
2018-08-22T18:37:36.347Z,52.50
2018-08-22T18:40:29.897Z,52.50
2018-08-22T18:43:01.058Z,52.50
2018-08-22T18:45:30.084Z,53.00
2018-08-22T18:48:00.860Z,52.80
2018-08-22T18:50:29.394Z,54.70
2018-08-22T18:53:01.239Z,53.80
2018-08-22T18:55:31.492Z,53.70
2018-08-22T18:58:01.981Z,54.40
2018-08-22T19:00:34.906Z,54.70
2018-08-22T19:03:04.523Z,54.80
2018-08-22T19:05:35.676Z,55.20
2018-08-22T19:08:09.957Z,54.60
2018-08-22T19:13:15.485Z,55.10
2018-08-22T19:15:49.732Z,56.60
2018-08-22T19:18:18.439Z,56.70
2018-08-22T19:20:47.433Z,55.90
2018-08-22T19:23:15.891Z,56.90
2018-08-22T19:25:47.774Z,56.90
2018-08-22T19:28:16.648Z,56.70
2018-08-22T19:30:45.196Z,56.10
2018-08-22T19:33:18.120Z,57.00
2018-08-22T19:35:47.173Z,56.80
2018-08-22T19:38:18.087Z,56.70
2018-08-22T19:40:46.896Z,57.60
2018-08-22T19:43:15.276Z,57.50
2018-08-22T19:45:43.761Z,57.80
2018-08-22T19:48:12.319Z,57.70
2018-08-22T19:50:40.806Z,57.60
2018-08-22T19:53:09.497Z,57.90
2018-08-22T19:55:38.306Z,58.20
2018-08-22T19:58:07.537Z,58.10
2018-08-22T20:00:36.040Z,59.60
2018-08-22T20:03:04.748Z,59.40
2018-08-22T20:05:50.446Z,58.80
2018-08-22T20:08:23.793Z,58.90
2018-08-22T20:10:52.533Z,59.80
2018-08-22T20:13:21.015Z,59.40
2018-08-22T20:15:50.136Z,59.90
2018-08-22T20:18:19.041Z,60.50
2018-08-22T20:20:47.526Z,61.80
2018-08-22T20:23:16.296Z,60.30
2018-08-22T20:25:44.621Z,60.60
2018-08-22T20:28:13.151Z,61.10
2018-08-22T20:30:41.621Z,61.10
2018-08-22T20:33:10.235Z,61.60
2018-08-22T20:35:40.657Z,61.30
2018-08-22T20:38:11.136Z,61.40
2018-08-22T20:40:40.344Z,61.60
2018-08-22T20:43:18.232Z,63.20
2018-08-22T20:45:47.640Z,62.90
2018-08-22T20:48:18.913Z,62.80
2018-08-22T20:50:47.615Z,63.00
2018-08-22T20:53:18.783Z,63.70
2018-08-22T20:55:47.618Z,63.10
2018-08-22T20:58:25.827Z,63.30
2018-08-22T21:00:54.440Z,63.60
2018-08-22T21:03:23.012Z,64.00
2018-08-22T21:05:51.808Z,63.70
2018-08-22T21:08:22.406Z,63.80
2018-08-22T21:10:51.136Z,64.20
2018-08-22T21:13:27.359Z,64.80
2018-08-22T21:15:56.369Z,65.00
2018-08-22T21:18:25.121Z,65.00
2018-08-22T21:20:54.339Z,65.50
2018-08-22T21:23:23.452Z,65.20
2018-08-22T21:25:54.100Z,65.40
2018-08-22T21:28:29.829Z,65.40
2018-08-22T21:30:59.768Z,66.10
2018-08-22T21:33:29.536Z,66.40
2018-08-22T21:35:57.870Z,67.00
2018-08-22T21:38:26.472Z,66.40
2018-08-22T21:40:55.127Z,66.10
2018-08-22T21:43:23.699Z,66.00
2018-08-22T21:45:52.694Z,67.00
2018-08-22T21:48:23.903Z,65.40
2018-08-22T21:50:52.723Z,67.10
2018-08-22T21:53:21.487Z,67.10
2018-08-22T21:55:52.318Z,67.50
2018-08-22T21:58:21.080Z,66.80
2018-08-22T22:00:49.848Z,67.60
2018-08-22T22:03:24.286Z,67.30
2018-08-22T22:06:08.663Z,67.50
2018-08-22T22:08:43.183Z,68.00
2018-08-22T22:11:13.760Z,68.40
2018-08-22T22:13:43.162Z,68.40
2018-08-22T22:16:11.789Z,68.20
2018-08-22T22:18:40.461Z,67.50
2018-08-22T22:21:12.927Z,68.30
2018-08-22T22:23:48.065Z,68.50
2018-08-22T22:26:17.868Z,68.70
2018-08-22T22:28:47.722Z,68.70
2018-08-22T22:31:17.460Z,69.90
2018-08-22T22:33:52.224Z,69.20
2018-08-22T22:36:21.406Z,70.10
2018-08-22T22:38:50.048Z,69.70
2018-08-22T22:41:19.090Z,70.20
2018-08-22T22:43:47.961Z,69.80
2018-08-22T22:46:16.401Z,69.90
2018-08-22T22:48:45.310Z,69.30
2018-08-22T22:51:13.994Z,70.00
2018-08-22T22:53:43.160Z,70.10
2018-08-22T22:56:11.974Z,69.80
2018-08-22T22:58:40.861Z,70.00
2018-08-22T23:01:09.605Z,68.60
2018-08-22T23:03:39.951Z,70.00
2018-08-22T23:06:08.789Z,70.30
2018-08-22T23:08:37.452Z,70.50
2018-08-22T23:11:06.544Z,70.00
2018-08-22T23:13:35.355Z,70.70
2018-08-22T23:16:04.888Z,71.10
2018-08-22T23:18:35.473Z,71.50
2018-08-22T23:21:03.706Z,71.30
2018-08-22T23:23:34.515Z,71.10
2018-08-22T23:26:13.571Z,71.00
2018-08-22T23:28:43.723Z,71.60
2018-08-22T23:31:18.883Z,70.80
2018-08-22T23:33:47.851Z,71.80
2018-08-22T23:36:16.577Z,71.00
2018-08-22T23:38:45.191Z,70.40
2018-08-22T23:41:13.982Z,71.40
2018-08-22T23:43:50.447Z,71.00
2018-08-22T23:46:18.995Z,71.10
2018-08-22T23:48:55.415Z,71.60
2018-08-22T23:51:24.299Z,72.10
2018-08-22T23:53:56.965Z,70.70
2018-08-22T23:56:27.677Z,70.90
2018-08-22T23:58:58.591Z,71.00
